Rebuck, Pennsylvania
Current Conditions -  °F | °C
As of 6:53 PM on Wednesday 28 Jan 2015 (Local Time) from KSEG Reporting Station
Clear Clear  
Wind Chill: 20°   Ceiling: Unl
Heat Index: 20°   Visibility: 10mi
Dew Point:   Wind: 0mph
Humidity: 55%   Direction: NA
Pressure: 30.28"   Gusts: NA
Location:  40.72°N, 76.73°W
Report Text: KSEG 282353Z AUTO 00000KT 10SM CLR M07/M14 A3028 RMK AO2 SLP263 T10671144 10017 21072 53025
Loading
Personal Weather Stations






























Interactive Weather Map New forecast layout! Learn more

10-Day Weather Forecast

Advertisements
Track Severe Weather on mobile